South Fork, CO

2:31 AM MDT on October 26, 2014 (GMT -0600)
KCOSOUTH6 | Change Station
CLOSE
Current Station
Personal Weather Station
Location: South Fork, CO
Elevation: 8225 ft
Nearby Weather Stations

Elev 8225 ft 37.67 °N, 106.64 °W | Updated 1 second ago

Partly Cloudy
Partly Cloudy
35.9 °F
Feels Like 31 °F
N
6.3
Wind Variable Wind from SW
Gusts 7.0 mph

Today
High -- | Low -- °F
--% Chance of Precip.
Yesterday
High -- | Low -- °F
Precip. -- in
7:25 AM 6:14 PM
Waxing Crescent, 6% visible
Pressure 30.27 in
Visibility 10.0 miles
Clouds Scattered Clouds 6500 ft
Scattered Clouds 8500 ft
Windchill 31 °F
Dew Point 28 °F
Humidity 71%
Rainfall 0.00 in
Snow Depth Not available.
UV 0 out of 12
Pollen 2.70 out of 12
Air Quality Not available.
Flu Activity Sporadic
METAR KPSO 260815Z AUTO 00000KT 10SM SCT065 SCT085 05/00 A3027 RMK AO2 T00501003

More Conditions Fewer Conditions

Pressure 30.27 in
Visibility 10.0 miles
Clouds Scattered Clouds 6500 ft
Scattered Clouds 8500 ft
Windchill 31 °F
Dew Point 28 °F
Humidity 71%
Rainfall 0.00 in
Snow Depth Not available.
UV 0 out of 12
Pollen 2.70 out of 12
Air Quality Not available.
Flu Activity Sporadic
METAR KPSO 260815Z AUTO 00000KT 10SM SCT065 SCT085 05/00 A3027 RMK AO2 T00501003

More Conditions Fewer Conditions

10-Day Weather Forecast

Almanac

Astronomy

Oct. 26, 2014 Rise Set
Actual Time 7:25 AM MDT 6:14 PM MDT
Civil Twilight 6:58 AM MDT 6:41 PM MDT
Nautical Twilight 6:28 AM MDT 7:12 PM MDT
Astronomical Twilight 5:57 AM MDT 7:42 PM MDT
Moon 10:04 AM MDT 8:30 PM MDT
Length of Visible Light 11h 42m
Length of Day
10h 49m
Tomorrow will be 2m 13s shorter.
Waxing Crescent, 6% of the Moon is Illuminated
Today
Waxing Crescent
Oct 30
First Quarter
Nov 6
Full
Nov 14
Last Quarter
Nov 22
New

Today's Extremes

State Highs State Lows

Community

WunderPhotos

Upload Photos

1,765,127 photos uploaded!

Nearby

Snow Depth

Station Depth Elevation
Wolf Creek Summit 0 in 11000 ft
Upper San Juan 0 in 10130 ft
Lily Pond 0 in 11000 ft
Middle Creek 1 in 11250 ft
Cochetopa Pass 0 in 10020 ft

Earthquake Activity

City Distance Mag. Time & Date
No recent earthquake activity has been reported nearby.
Minimum magnitude displayed is 2.5.

Coastal Water Temperatures

Place Temperature
No Stations Reporting

Nearby Weather Stations